sensor_id;sensor_type;location;lat;lon;timestamp;P1;durP1;ratioP1;P2;durP2;ratioP2
325;SDS011;150;52.352;14.058;2022-10-17T00:01:55;2.80;;;2.25;;
325;SDS011;150;52.352;14.058;2022-10-17T00:04:22;5.65;;;2.63;;
325;SDS011;150;52.352;14.058;2022-10-17T00:06:50;4.18;;;2.60;;
325;SDS011;150;52.352;14.058;2022-10-17T00:09:16;4.67;;;2.60;;
325;SDS011;150;52.352;14.058;2022-10-17T00:11:43;3.45;;;2.10;;
325;SDS011;150;52.352;14.058;2022-10-17T00:14:10;3.10;;;2.17;;
325;SDS011;150;52.352;14.058;2022-10-17T00:16:36;4.60;;;2.50;;
325;SDS011;150;52.352;14.058;2022-10-17T00:19:03;3.70;;;2.65;;
325;SDS011;150;52.352;14.058;2022-10-17T00:21:31;3.72;;;2.60;;
325;SDS011;150;52.352;14.058;2022-10-17T00:23:59;3.90;;;2.60;;
325;SDS011;150;52.352;14.058;2022-10-17T00:26:26;5.85;;;2.10;;
325;SDS011;150;52.352;14.058;2022-10-17T00:28:53;2.55;;;2.00;;
325;SDS011;150;52.352;14.058;2022-10-17T00:31:21;3.40;;;2.60;;
325;SDS011;150;52.352;14.058;2022-10-17T00:33:49;3.53;;;3.00;;
325;SDS011;150;52.352;14.058;2022-10-17T00:36:17;4.05;;;3.10;;
325;SDS011;150;52.352;14.058;2022-10-17T00:38:45;7.65;;;4.78;;
325;SDS011;150;52.352;14.058;2022-10-17T00:41:17;13.90;;;8.15;;
325;SDS011;150;52.352;14.058;2022-10-17T00:43:51;16.70;;;7.50;;
325;SDS011;150;52.352;14.058;2022-10-17T00:46:20;15.23;;;7.47;;
325;SDS011;150;52.352;14.058;2022-10-17T00:48:49;6.90;;;4.90;;
325;SDS011;150;52.352;14.058;2022-10-17T00:51:17;7.15;;;3.95;;
325;SDS011;150;52.352;14.058;2022-10-17T00:53:47;5.55;;;3.45;;
325;SDS011;150;52.352;14.058;2022-10-17T00:56:17;5.50;;;3.38;;
325;SDS011;150;52.352;14.058;2022-10-17T00:58:44;6.15;;;4.00;;
325;SDS011;150;52.352;14.058;2022-10-17T01:01:11;5.32;;;3.80;;
325;SDS011;150;52.352;14.058;2022-10-17T01:03:38;6.10;;;3.60;;
325;SDS011;150;52.352;14.058;2022-10-17T01:06:04;4.53;;;3.75;;
325;SDS011;150;52.352;14.058;2022-10-17T01:08:31;5.68;;;3.28;;
325;SDS011;150;52.352;14.058;2022-10-17T01:11:00;3.78;;;3.40;;
325;SDS011;150;52.352;14.058;2022-10-17T01:13:36;4.55;;;3.40;;
325;SDS011;150;52.352;14.058;2022-10-17T01:16:07;5.72;;;4.50;;
325;SDS011;150;52.352;14.058;2022-10-17T01:18:50;5.07;;;4.38;;
325;SDS011;150;52.352;14.058;2022-10-17T01:21:32;6.73;;;5.17;;
325;SDS011;150;52.352;14.058;2022-10-17T01:30:21;6.80;;;4.95;;
325;SDS011;150;52.352;14.058;2022-10-17T01:33:17;7.40;;;5.20;;
325;SDS011;150;52.352;14.058;2022-10-17T01:35:53;5.80;;;4.60;;
325;SDS011;150;52.352;14.058;2022-10-17T01:38:25;4.73;;;4.13;;
325;SDS011;150;52.352;14.058;2022-10-17T01:40:59;6.10;;;3.80;;
325;SDS011;150;52.352;14.058;2022-10-17T01:43:32;5.97;;;4.05;;
325;SDS011;150;52.352;14.058;2022-10-17T01:46:05;4.20;;;3.60;;
325;SDS011;150;52.352;14.058;2022-10-17T01:48:39;4.35;;;3.25;;
325;SDS011;150;52.352;14.058;2022-10-17T01:51:10;4.43;;;3.97;;
325;SDS011;150;52.352;14.058;2022-10-17T01:53:41;7.67;;;4.10;;
325;SDS011;150;52.352;14.058;2022-10-17T01:56:12;6.45;;;4.80;;
325;SDS011;150;52.352;14.058;2022-10-17T01:58:42;5.18;;;3.90;;
325;SDS011;150;52.352;14.058;2022-10-17T02:01:13;5.53;;;4.00;;
325;SDS011;150;52.352;14.058;2022-10-17T02:03:43;5.07;;;4.20;;
325;SDS011;150;52.352;14.058;2022-10-17T02:06:11;5.50;;;4.57;;
325;SDS011;150;52.352;14.058;2022-10-17T02:08:39;4.80;;;3.28;;
325;SDS011;150;52.352;14.058;2022-10-17T02:11:09;4.45;;;3.80;;
325;SDS011;150;52.352;14.058;2022-10-17T02:13:45;6.75;;;3.58;;
325;SDS011;150;52.352;14.058;2022-10-17T02:16:25;4.15;;;3.05;;
325;SDS011;150;52.352;14.058;2022-10-17T02:22:26;3.10;;;2.70;;
325;SDS011;150;52.352;14.058;2022-10-17T02:24:59;4.78;;;3.35;;
325;SDS011;150;52.352;14.058;2022-10-17T02:27:34;5.95;;;3.67;;
325;SDS011;150;52.352;14.058;2022-10-17T02:30:09;4.63;;;3.40;;
325;SDS011;150;52.352;14.058;2022-10-17T02:32:48;5.25;;;3.55;;
325;SDS011;150;52.352;14.058;2022-10-17T02:35:34;3.97;;;3.17;;
325;SDS011;150;52.352;14.058;2022-10-17T02:38:41;3.17;;;2.50;;
325;SDS011;150;52.352;14.058;2022-10-17T02:41:10;3.50;;;2.95;;
325;SDS011;150;52.352;14.058;2022-10-17T02:43:47;4.55;;;3.40;;
325;SDS011;150;52.352;14.058;2022-10-17T02:46:15;3.28;;;2.83;;
325;SDS011;150;52.352;14.058;2022-10-17T02:48:51;3.53;;;3.13;;
325;SDS011;150;52.352;14.058;2022-10-17T02:51:51;3.28;;;2.20;;
325;SDS011;150;52.352;14.058;2022-10-17T02:54:44;3.63;;;2.83;;
325;SDS011;150;52.352;14.058;2022-10-17T02:57:23;2.90;;;2.78;;
325;SDS011;150;52.352;14.058;2022-10-17T03:00:01;3.90;;;2.80;;
325;SDS011;150;52.352;14.058;2022-10-17T03:02:40;3.28;;;2.70;;
325;SDS011;150;52.352;14.058;2022-10-17T03:08:03;4.60;;;2.95;;
325;SDS011;150;52.352;14.058;2022-10-17T03:10:38;3.15;;;3.00;;
325;SDS011;150;52.352;14.058;2022-10-17T03:13:05;3.00;;;2.53;;
325;SDS011;150;52.352;14.058;2022-10-17T03:15:32;5.00;;;2.58;;
325;SDS011;150;52.352;14.058;2022-10-17T03:17:58;4.60;;;3.30;;
325;SDS011;150;52.352;14.058;2022-10-17T03:20:25;3.30;;;2.70;;
325;SDS011;150;52.352;14.058;2022-10-17T03:22:52;2.90;;;2.40;;
325;SDS011;150;52.352;14.058;2022-10-17T03:25:18;2.83;;;2.60;;
325;SDS011;150;52.352;14.058;2022-10-17T03:27:46;4.90;;;2.30;;
325;SDS011;150;52.352;14.058;2022-10-17T03:30:13;2.60;;;2.33;;
325;SDS011;150;52.352;14.058;2022-10-17T03:32:40;3.00;;;2.30;;
325;SDS011;150;52.352;14.058;2022-10-17T03:35:06;3.90;;;3.30;;
325;SDS011;150;52.352;14.058;2022-10-17T03:37:33;5.22;;;2.80;;
325;SDS011;150;52.352;14.058;2022-10-17T03:40:00;5.73;;;2.90;;
325;SDS011;150;52.352;14.058;2022-10-17T03:42:27;2.30;;;2.00;;
325;SDS011;150;52.352;14.058;2022-10-17T03:44:54;3.05;;;2.70;;
325;SDS011;150;52.352;14.058;2022-10-17T03:47:21;3.10;;;3.00;;
325;SDS011;150;52.352;14.058;2022-10-17T03:49:48;3.13;;;3.00;;
325;SDS011;150;52.352;14.058;2022-10-17T03:52:17;4.65;;;3.00;;
325;SDS011;150;52.352;14.058;2022-10-17T03:54:44;6.20;;;3.70;;
325;SDS011;150;52.352;14.058;2022-10-17T03:57:10;7.22;;;4.25;;
325;SDS011;150;52.352;14.058;2022-10-17T03:59:37;5.53;;;4.22;;
325;SDS011;150;52.352;14.058;2022-10-17T04:02:05;6.15;;;4.38;;
325;SDS011;150;52.352;14.058;2022-10-17T04:04:31;5.40;;;4.80;;
325;SDS011;150;52.352;14.058;2022-10-17T04:06:58;4.50;;;4.07;;
325;SDS011;150;52.352;14.058;2022-10-17T04:09:25;5.10;;;4.55;;
325;SDS011;150;52.352;14.058;2022-10-17T04:11:52;5.00;;;4.28;;
325;SDS011;150;52.352;14.058;2022-10-17T04:14:19;5.63;;;4.00;;
325;SDS011;150;52.352;14.058;2022-10-17T04:16:45;4.75;;;4.30;;
325;SDS011;150;52.352;14.058;2022-10-17T04:19:13;6.53;;;4.47;;
325;SDS011;150;52.352;14.058;2022-10-17T04:21:40;6.47;;;4.10;;
325;SDS011;150;52.352;14.058;2022-10-17T04:24:07;4.37;;;3.97;;
325;SDS011;150;52.352;14.058;2022-10-17T04:26:36;4.20;;;3.40;;
325;SDS011;150;52.352;14.058;2022-10-17T04:29:03;6.40;;;3.90;;
325;SDS011;150;52.352;14.058;2022-10-17T04:31:30;4.05;;;3.83;;
325;SDS011;150;52.352;14.058;2022-10-17T04:33:56;5.68;;;4.85;;
325;SDS011;150;52.352;14.058;2022-10-17T04:36:24;6.85;;;6.20;;
325;SDS011;150;52.352;14.058;2022-10-17T04:38:51;7.65;;;6.10;;
325;SDS011;150;52.352;14.058;2022-10-17T04:41:17;6.00;;;5.50;;
325;SDS011;150;52.352;14.058;2022-10-17T04:43:44;7.80;;;6.25;;
325;SDS011;150;52.352;14.058;2022-10-17T04:46:12;12.20;;;10.27;;
325;SDS011;150;52.352;14.058;2022-10-17T04:48:40;9.88;;;7.00;;
325;SDS011;150;52.352;14.058;2022-10-17T04:51:08;10.10;;;7.80;;
325;SDS011;150;52.352;14.058;2022-10-17T04:53:38;10.77;;;8.10;;
325;SDS011;150;52.352;14.058;2022-10-17T04:56:08;7.93;;;6.68;;
325;SDS011;150;52.352;14.058;2022-10-17T04:58:36;9.10;;;6.50;;
325;SDS011;150;52.352;14.058;2022-10-17T05:01:03;7.97;;;6.68;;
325;SDS011;150;52.352;14.058;2022-10-17T05:03:31;9.43;;;5.80;;
325;SDS011;150;52.352;14.058;2022-10-17T05:05:58;8.30;;;6.85;;
325;SDS011;150;52.352;14.058;2022-10-17T05:08:27;9.52;;;8.02;;
325;SDS011;150;52.352;14.058;2022-10-17T05:10:55;10.60;;;8.40;;
325;SDS011;150;52.352;14.058;2022-10-17T05:13:22;8.55;;;7.18;;
325;SDS011;150;52.352;14.058;2022-10-17T05:15:49;7.60;;;6.90;;
325;SDS011;150;52.352;14.058;2022-10-17T05:18:15;10.90;;;7.30;;
325;SDS011;150;52.352;14.058;2022-10-17T05:20:42;7.05;;;6.03;;
325;SDS011;150;52.352;14.058;2022-10-17T05:23:08;9.75;;;6.88;;
325;SDS011;150;52.352;14.058;2022-10-17T05:25:35;8.60;;;7.03;;
325;SDS011;150;52.352;14.058;2022-10-17T05:28:03;7.60;;;6.78;;
325;SDS011;150;52.352;14.058;2022-10-17T05:30:30;7.95;;;6.75;;
325;SDS011;150;52.352;14.058;2022-10-17T05:32:56;7.27;;;6.50;;
325;SDS011;150;52.352;14.058;2022-10-17T05:35:23;6.97;;;6.45;;
325;SDS011;150;52.352;14.058;2022-10-17T05:37:49;7.45;;;6.43;;
325;SDS011;150;52.352;14.058;2022-10-17T05:40:16;10.85;;;7.30;;
325;SDS011;150;52.352;14.058;2022-10-17T05:42:46;9.25;;;7.85;;
325;SDS011;150;52.352;14.058;2022-10-17T05:45:14;9.50;;;7.63;;
325;SDS011;150;52.352;14.058;2022-10-17T05:47:41;11.25;;;8.30;;
325;SDS011;150;52.352;14.058;2022-10-17T05:50:08;10.23;;;7.80;;
325;SDS011;150;52.352;14.058;2022-10-17T05:52:35;9.43;;;7.85;;
325;SDS011;150;52.352;14.058;2022-10-17T05:55:02;9.40;;;8.07;;
325;SDS011;150;52.352;14.058;2022-10-17T05:57:29;10.18;;;8.43;;
325;SDS011;150;52.352;14.058;2022-10-17T05:59:55;13.57;;;7.82;;
325;SDS011;150;52.352;14.058;2022-10-17T06:02:23;12.48;;;8.73;;
325;SDS011;150;52.352;14.058;2022-10-17T06:04:50;10.70;;;8.57;;
325;SDS011;150;52.352;14.058;2022-10-17T06:07:17;9.07;;;7.03;;
325;SDS011;150;52.352;14.058;2022-10-17T06:09:43;9.32;;;7.60;;
325;SDS011;150;52.352;14.058;2022-10-17T06:12:10;10.35;;;7.90;;
325;SDS011;150;52.352;14.058;2022-10-17T06:14:36;11.57;;;8.80;;
325;SDS011;150;52.352;14.058;2022-10-17T06:17:03;11.20;;;8.43;;
325;SDS011;150;52.352;14.058;2022-10-17T06:19:31;10.30;;;8.00;;
325;SDS011;150;52.352;14.058;2022-10-17T06:21:57;13.37;;;8.20;;
325;SDS011;150;52.352;14.058;2022-10-17T06:24:24;13.10;;;8.88;;
325;SDS011;150;52.352;14.058;2022-10-17T06:26:51;10.52;;;8.57;;
325;SDS011;150;52.352;14.058;2022-10-17T06:29:18;11.75;;;8.77;;
325;SDS011;150;52.352;14.058;2022-10-17T06:31:44;12.93;;;9.73;;
325;SDS011;150;52.352;14.058;2022-10-17T06:34:11;14.73;;;9.30;;
325;SDS011;150;52.352;14.058;2022-10-17T06:36:39;14.57;;;9.82;;
325;SDS011;150;52.352;14.058;2022-10-17T06:39:05;19.40;;;9.38;;
325;SDS011;150;52.352;14.058;2022-10-17T06:41:32;13.10;;;9.52;;
325;SDS011;150;52.352;14.058;2022-10-17T06:43:59;12.52;;;8.77;;
325;SDS011;150;52.352;14.058;2022-10-17T06:46:25;12.15;;;8.90;;
325;SDS011;150;52.352;14.058;2022-10-17T06:48:53;11.88;;;9.02;;
325;SDS011;150;52.352;14.058;2022-10-17T06:51:20;10.73;;;8.38;;
325;SDS011;150;52.352;14.058;2022-10-17T06:53:48;12.88;;;8.63;;
325;SDS011;150;52.352;14.058;2022-10-17T06:56:14;12.30;;;9.40;;
325;SDS011;150;52.352;14.058;2022-10-17T06:58:43;12.50;;;8.55;;
325;SDS011;150;52.352;14.058;2022-10-17T07:01:11;12.10;;;9.90;;
325;SDS011;150;52.352;14.058;2022-10-17T07:03:38;12.95;;;9.25;;
325;SDS011;150;52.352;14.058;2022-10-17T07:06:06;11.25;;;8.80;;
325;SDS011;150;52.352;14.058;2022-10-17T07:08:34;12.77;;;9.02;;
325;SDS011;150;52.352;14.058;2022-10-17T07:11:08;14.32;;;9.30;;
325;SDS011;150;52.352;14.058;2022-10-17T07:13:36;13.13;;;9.90;;
325;SDS011;150;52.352;14.058;2022-10-17T07:16:02;15.63;;;10.93;;
325;SDS011;150;52.352;14.058;2022-10-17T07:18:29;13.25;;;9.30;;
325;SDS011;150;52.352;14.058;2022-10-17T07:20:56;11.73;;;8.85;;
325;SDS011;150;52.352;14.058;2022-10-17T07:23:22;18.23;;;15.07;;
325;SDS011;150;52.352;14.058;2022-10-17T07:25:49;14.45;;;10.70;;
325;SDS011;150;52.352;14.058;2022-10-17T07:28:17;11.40;;;8.70;;
325;SDS011;150;52.352;14.058;2022-10-17T07:30:44;10.00;;;7.82;;
325;SDS011;150;52.352;14.058;2022-10-17T07:33:11;10.00;;;7.77;;
325;SDS011;150;52.352;14.058;2022-10-17T07:35:37;9.98;;;8.73;;
325;SDS011;150;52.352;14.058;2022-10-17T07:38:05;10.35;;;7.55;;
325;SDS011;150;52.352;14.058;2022-10-17T07:40:32;9.60;;;8.05;;
325;SDS011;150;52.352;14.058;2022-10-17T07:42:59;12.00;;;8.35;;
325;SDS011;150;52.352;14.058;2022-10-17T07:45:27;12.20;;;7.77;;
325;SDS011;150;52.352;14.058;2022-10-17T07:47:54;10.75;;;8.15;;
325;SDS011;150;52.352;14.058;2022-10-17T07:50:21;10.23;;;8.27;;
325;SDS011;150;52.352;14.058;2022-10-17T07:52:48;8.90;;;7.60;;
325;SDS011;150;52.352;14.058;2022-10-17T07:55:15;11.02;;;7.43;;
325;SDS011;150;52.352;14.058;2022-10-17T07:57:41;10.20;;;7.45;;
325;SDS011;150;52.352;14.058;2022-10-17T08:00:08;9.65;;;7.97;;
325;SDS011;150;52.352;14.058;2022-10-17T08:02:37;9.20;;;7.95;;
325;SDS011;150;52.352;14.058;2022-10-17T08:05:04;12.82;;;8.80;;
325;SDS011;150;52.352;14.058;2022-10-17T08:07:32;11.38;;;10.18;;
325;SDS011;150;52.352;14.058;2022-10-17T08:09:58;11.20;;;8.25;;
325;SDS011;150;52.352;14.058;2022-10-17T08:12:25;11.45;;;7.05;;
325;SDS011;150;52.352;14.058;2022-10-17T08:14:58;9.77;;;7.95;;
325;SDS011;150;52.352;14.058;2022-10-17T08:17:25;8.00;;;7.35;;
325;SDS011;150;52.352;14.058;2022-10-17T08:19:53;9.70;;;6.50;;
325;SDS011;150;52.352;14.058;2022-10-17T08:22:19;9.70;;;7.25;;
325;SDS011;150;52.352;14.058;2022-10-17T08:24:46;7.57;;;6.45;;
325;SDS011;150;52.352;14.058;2022-10-17T08:27:12;8.23;;;6.50;;
325;SDS011;150;52.352;14.058;2022-10-17T08:29:45;8.65;;;6.50;;
325;SDS011;150;52.352;14.058;2022-10-17T08:32:12;7.28;;;5.50;;
325;SDS011;150;52.352;14.058;2022-10-17T08:34:39;9.25;;;5.80;;
325;SDS011;150;52.352;14.058;2022-10-17T08:37:07;7.97;;;6.53;;
325;SDS011;150;52.352;14.058;2022-10-17T08:39:33;9.60;;;6.40;;
325;SDS011;150;52.352;14.058;2022-10-17T08:42:07;9.47;;;6.87;;
325;SDS011;150;52.352;14.058;2022-10-17T08:44:53;9.18;;;7.75;;
325;SDS011;150;52.352;14.058;2022-10-17T08:47:26;8.38;;;6.60;;
325;SDS011;150;52.352;14.058;2022-10-17T08:49:59;9.82;;;7.97;;
325;SDS011;150;52.352;14.058;2022-10-17T08:52:33;11.90;;;9.45;;
325;SDS011;150;52.352;14.058;2022-10-17T08:55:04;13.65;;;11.45;;
325;SDS011;150;52.352;14.058;2022-10-17T08:57:39;9.52;;;6.88;;
325;SDS011;150;52.352;14.058;2022-10-17T09:00:07;8.80;;;5.70;;
325;SDS011;150;52.352;14.058;2022-10-17T09:02:42;8.60;;;5.15;;
325;SDS011;150;52.352;14.058;2022-10-17T09:05:22;6.25;;;4.97;;
325;SDS011;150;52.352;14.058;2022-10-17T09:07:56;5.93;;;4.97;;
325;SDS011;150;52.352;14.058;2022-10-17T09:10:31;6.13;;;4.95;;
325;SDS011;150;52.352;14.058;2022-10-17T09:13:05;6.20;;;5.10;;
325;SDS011;150;52.352;14.058;2022-10-17T09:15:44;9.47;;;5.30;;
325;SDS011;150;52.352;14.058;2022-10-17T09:18:21;6.10;;;4.70;;
325;SDS011;150;52.352;14.058;2022-10-17T09:20:52;6.00;;;4.40;;
325;SDS011;150;52.352;14.058;2022-10-17T09:23:23;10.18;;;5.47;;
325;SDS011;150;52.352;14.058;2022-10-17T09:25:53;7.00;;;5.80;;
325;SDS011;150;52.352;14.058;2022-10-17T09:28:22;7.03;;;5.63;;
325;SDS011;150;52.352;14.058;2022-10-17T09:30:55;7.50;;;5.80;;
325;SDS011;150;52.352;14.058;2022-10-17T09:33:24;9.55;;;5.43;;
325;SDS011;150;52.352;14.058;2022-10-17T09:35:54;9.45;;;8.25;;
325;SDS011;150;52.352;14.058;2022-10-17T09:38:24;9.50;;;7.28;;
325;SDS011;150;52.352;14.058;2022-10-17T09:40:55;8.07;;;6.07;;
325;SDS011;150;52.352;14.058;2022-10-17T09:43:23;9.63;;;6.95;;
325;SDS011;150;52.352;14.058;2022-10-17T09:45:53;15.23;;;13.80;;
325;SDS011;150;52.352;14.058;2022-10-17T09:48:27;9.50;;;5.75;;
325;SDS011;150;52.352;14.058;2022-10-17T09:51:00;7.32;;;5.70;;
325;SDS011;150;52.352;14.058;2022-10-17T09:53:29;7.10;;;4.82;;
325;SDS011;150;52.352;14.058;2022-10-17T09:56:02;6.85;;;5.40;;
325;SDS011;150;52.352;14.058;2022-10-17T09:58:39;7.60;;;5.90;;
325;SDS011;150;52.352;14.058;2022-10-17T10:01:14;8.27;;;5.97;;
325;SDS011;150;52.352;14.058;2022-10-17T10:03:43;7.32;;;5.90;;
325;SDS011;150;52.352;14.058;2022-10-17T10:06:12;8.60;;;7.00;;
325;SDS011;150;52.352;14.058;2022-10-17T10:08:48;6.40;;;5.28;;
325;SDS011;150;52.352;14.058;2022-10-17T10:11:16;9.98;;;6.28;;
325;SDS011;150;52.352;14.058;2022-10-17T10:13:45;6.13;;;5.17;;
325;SDS011;150;52.352;14.058;2022-10-17T10:16:15;10.45;;;5.82;;
325;SDS011;150;52.352;14.058;2022-10-17T10:18:43;6.82;;;4.90;;
325;SDS011;150;52.352;14.058;2022-10-17T10:21:11;11.23;;;7.33;;
325;SDS011;150;52.352;14.058;2022-10-17T10:23:40;8.57;;;6.32;;
325;SDS011;150;52.352;14.058;2022-10-17T10:26:16;7.38;;;5.32;;
325;SDS011;150;52.352;14.058;2022-10-17T10:28:50;9.02;;;6.40;;
325;SDS011;150;52.352;14.058;2022-10-17T10:31:24;5.22;;;4.22;;
325;SDS011;150;52.352;14.058;2022-10-17T10:33:53;7.28;;;5.30;;
325;SDS011;150;52.352;14.058;2022-10-17T10:36:19;7.85;;;5.72;;
325;SDS011;150;52.352;14.058;2022-10-17T10:38:50;7.05;;;5.80;;
325;SDS011;150;52.352;14.058;2022-10-17T10:41:19;7.43;;;6.28;;
325;SDS011;150;52.352;14.058;2022-10-17T10:43:46;7.68;;;6.28;;
325;SDS011;150;52.352;14.058;2022-10-17T10:46:15;7.97;;;6.95;;
325;SDS011;150;52.352;14.058;2022-10-17T10:48:51;6.70;;;5.70;;
325;SDS011;150;52.352;14.058;2022-10-17T10:51:21;12.10;;;8.70;;
325;SDS011;150;52.352;14.058;2022-10-17T10:53:54;8.73;;;6.25;;
325;SDS011;150;52.352;14.058;2022-10-17T10:56:28;8.73;;;7.00;;
325;SDS011;150;52.352;14.058;2022-10-17T10:59:01;9.65;;;6.75;;
325;SDS011;150;52.352;14.058;2022-10-17T11:01:33;7.00;;;5.72;;
325;SDS011;150;52.352;14.058;2022-10-17T11:04:19;7.70;;;5.67;;
325;SDS011;150;52.352;14.058;2022-10-17T11:06:51;7.70;;;5.95;;
325;SDS011;150;52.352;14.058;2022-10-17T11:09:25;10.10;;;6.05;;
325;SDS011;150;52.352;14.058;2022-10-17T11:12:00;7.40;;;5.80;;
325;SDS011;150;52.352;14.058;2022-10-17T11:14:33;9.63;;;6.10;;
325;SDS011;150;52.352;14.058;2022-10-17T11:17:07;8.10;;;5.75;;
325;SDS011;150;52.352;14.058;2022-10-17T11:19:43;8.93;;;6.40;;
325;SDS011;150;52.352;14.058;2022-10-17T11:22:14;7.13;;;5.68;;
325;SDS011;150;52.352;14.058;2022-10-17T11:24:42;7.30;;;5.70;;
325;SDS011;150;52.352;14.058;2022-10-17T11:27:15;8.77;;;6.60;;
325;SDS011;150;52.352;14.058;2022-10-17T11:29:42;8.50;;;6.40;;
325;SDS011;150;52.352;14.058;2022-10-17T11:32:11;7.50;;;6.40;;
325;SDS011;150;52.352;14.058;2022-10-17T11:34:46;6.93;;;6.03;;
325;SDS011;150;52.352;14.058;2022-10-17T11:37:17;7.00;;;5.70;;
325;SDS011;150;52.352;14.058;2022-10-17T11:39:49;9.80;;;5.80;;
325;SDS011;150;52.352;14.058;2022-10-17T11:42:22;8.00;;;6.70;;
325;SDS011;150;52.352;14.058;2022-10-17T11:44:52;7.43;;;5.78;;
325;SDS011;150;52.352;14.058;2022-10-17T11:47:27;9.50;;;7.07;;
325;SDS011;150;52.352;14.058;2022-10-17T11:50:00;11.52;;;7.05;;
325;SDS011;150;52.352;14.058;2022-10-17T11:52:33;7.18;;;5.65;;
325;SDS011;150;52.352;14.058;2022-10-17T11:55:04;6.60;;;5.07;;
325;SDS011;150;52.352;14.058;2022-10-17T11:57:45;6.97;;;5.80;;
325;SDS011;150;52.352;14.058;2022-10-17T12:00:25;6.18;;;5.10;;
325;SDS011;150;52.352;14.058;2022-10-17T12:03:11;6.05;;;5.38;;
325;SDS011;150;52.352;14.058;2022-10-17T12:05:49;7.18;;;5.60;;
325;SDS011;150;52.352;14.058;2022-10-17T12:08:22;7.10;;;6.40;;
325;SDS011;150;52.352;14.058;2022-10-17T12:10:56;6.88;;;5.75;;
325;SDS011;150;52.352;14.058;2022-10-17T12:16:35;8.15;;;5.65;;
325;SDS011;150;52.352;14.058;2022-10-17T12:19:19;9.18;;;5.75;;
325;SDS011;150;52.352;14.058;2022-10-17T12:21:53;9.70;;;5.70;;
325;SDS011;150;52.352;14.058;2022-10-17T12:24:24;6.82;;;5.70;;
325;SDS011;150;52.352;14.058;2022-10-17T12:27:23;6.83;;;5.43;;
325;SDS011;150;52.352;14.058;2022-10-17T12:30:02;8.15;;;6.32;;
325;SDS011;150;52.352;14.058;2022-10-17T12:32:32;7.35;;;5.53;;
325;SDS011;150;52.352;14.058;2022-10-17T12:34:59;6.40;;;5.35;;
325;SDS011;150;52.352;14.058;2022-10-17T12:40:51;7.35;;;5.57;;
325;SDS011;150;52.352;14.058;2022-10-17T12:49:39;22.83;;;20.70;;
325;SDS011;150;52.352;14.058;2022-10-17T12:55:11;8.70;;;5.80;;
325;SDS011;150;52.352;14.058;2022-10-17T12:57:41;9.82;;;6.32;;
325;SDS011;150;52.352;14.058;2022-10-17T13:00:15;6.53;;;6.03;;
325;SDS011;150;52.352;14.058;2022-10-17T13:02:47;7.13;;;5.90;;
325;SDS011;150;52.352;14.058;2022-10-17T13:05:16;7.15;;;6.07;;
325;SDS011;150;52.352;14.058;2022-10-17T13:07:48;8.60;;;5.70;;
325;SDS011;150;52.352;14.058;2022-10-17T13:10:20;7.93;;;5.47;;
325;SDS011;150;52.352;14.058;2022-10-17T13:12:49;6.60;;;5.50;;
325;SDS011;150;52.352;14.058;2022-10-17T13:15:18;7.40;;;5.40;;
325;SDS011;150;52.352;14.058;2022-10-17T13:17:55;8.90;;;5.30;;
325;SDS011;150;52.352;14.058;2022-10-17T13:20:23;6.40;;;5.10;;
325;SDS011;150;52.352;14.058;2022-10-17T13:22:52;8.00;;;5.30;;
325;SDS011;150;52.352;14.058;2022-10-17T13:25:21;5.97;;;5.07;;
325;SDS011;150;52.352;14.058;2022-10-17T13:27:48;7.00;;;5.80;;
325;SDS011;150;52.352;14.058;2022-10-17T13:30:28;6.63;;;5.40;;
325;SDS011;150;52.352;14.058;2022-10-17T13:32:57;9.98;;;6.15;;
325;SDS011;150;52.352;14.058;2022-10-17T13:35:25;7.10;;;5.70;;
325;SDS011;150;52.352;14.058;2022-10-17T13:37:53;6.35;;;5.90;;
325;SDS011;150;52.352;14.058;2022-10-17T13:40:21;9.98;;;6.60;;
325;SDS011;150;52.352;14.058;2022-10-17T13:42:50;7.45;;;5.80;;
325;SDS011;150;52.352;14.058;2022-10-17T13:45:19;8.60;;;6.95;;
325;SDS011;150;52.352;14.058;2022-10-17T13:47:49;6.87;;;5.50;;
325;SDS011;150;52.352;14.058;2022-10-17T13:50:20;9.10;;;6.05;;
325;SDS011;150;52.352;14.058;2022-10-17T13:53:04;7.37;;;5.60;;
325;SDS011;150;52.352;14.058;2022-10-17T13:55:32;8.57;;;6.53;;
325;SDS011;150;52.352;14.058;2022-10-17T13:58:08;8.27;;;5.85;;
325;SDS011;150;52.352;14.058;2022-10-17T14:00:35;10.30;;;8.45;;
325;SDS011;150;52.352;14.058;2022-10-17T14:03:02;7.30;;;6.30;;
325;SDS011;150;52.352;14.058;2022-10-17T14:05:30;9.45;;;7.65;;
325;SDS011;150;52.352;14.058;2022-10-17T14:07:58;8.13;;;6.30;;
325;SDS011;150;52.352;14.058;2022-10-17T14:10:29;8.18;;;6.85;;
325;SDS011;150;52.352;14.058;2022-10-17T14:12:57;11.05;;;8.65;;
325;SDS011;150;52.352;14.058;2022-10-17T14:15:25;10.53;;;8.03;;
325;SDS011;150;52.352;14.058;2022-10-17T14:17:54;10.05;;;7.50;;
325;SDS011;150;52.352;14.058;2022-10-17T14:20:24;7.22;;;5.95;;
325;SDS011;150;52.352;14.058;2022-10-17T14:22:55;9.13;;;5.80;;
325;SDS011;150;52.352;14.058;2022-10-17T14:25:26;7.28;;;5.25;;
325;SDS011;150;52.352;14.058;2022-10-17T14:27:55;7.00;;;5.45;;
325;SDS011;150;52.352;14.058;2022-10-17T14:30:32;8.05;;;5.70;;
325;SDS011;150;52.352;14.058;2022-10-17T14:33:02;8.65;;;6.65;;
325;SDS011;150;52.352;14.058;2022-10-17T14:35:31;8.60;;;7.10;;
325;SDS011;150;52.352;14.058;2022-10-17T14:38:00;11.05;;;7.03;;
325;SDS011;150;52.352;14.058;2022-10-17T14:40:29;9.25;;;6.75;;
325;SDS011;150;52.352;14.058;2022-10-17T14:42:57;7.13;;;6.05;;
325;SDS011;150;52.352;14.058;2022-10-17T14:45:27;10.23;;;7.20;;
325;SDS011;150;52.352;14.058;2022-10-17T14:47:58;9.05;;;7.50;;
325;SDS011;150;52.352;14.058;2022-10-17T14:50:29;11.07;;;6.75;;
325;SDS011;150;52.352;14.058;2022-10-17T14:53:01;7.97;;;5.75;;
325;SDS011;150;52.352;14.058;2022-10-17T14:55:31;6.70;;;5.90;;
325;SDS011;150;52.352;14.058;2022-10-17T14:57:59;8.77;;;6.05;;
325;SDS011;150;52.352;14.058;2022-10-17T15:00:26;8.50;;;5.60;;
325;SDS011;150;52.352;14.058;2022-10-17T15:02:54;7.90;;;6.30;;
325;SDS011;150;52.352;14.058;2022-10-17T15:05:21;9.60;;;6.15;;
325;SDS011;150;52.352;14.058;2022-10-17T15:07:49;8.25;;;5.65;;
325;SDS011;150;52.352;14.058;2022-10-17T15:10:24;8.55;;;6.88;;
325;SDS011;150;52.352;14.058;2022-10-17T15:12:57;10.13;;;6.55;;
325;SDS011;150;52.352;14.058;2022-10-17T15:15:25;7.35;;;5.97;;
325;SDS011;150;52.352;14.058;2022-10-17T15:17:52;10.23;;;6.05;;
325;SDS011;150;52.352;14.058;2022-10-17T15:20:19;6.70;;;5.67;;
325;SDS011;150;52.352;14.058;2022-10-17T15:22:50;7.38;;;5.97;;
325;SDS011;150;52.352;14.058;2022-10-17T15:25:16;7.63;;;5.80;;
325;SDS011;150;52.352;14.058;2022-10-17T15:27:45;8.77;;;5.78;;
325;SDS011;150;52.352;14.058;2022-10-17T15:30:15;7.55;;;5.55;;
325;SDS011;150;52.352;14.058;2022-10-17T15:32:45;9.23;;;5.50;;
325;SDS011;150;52.352;14.058;2022-10-17T15:35:12;8.43;;;5.70;;
325;SDS011;150;52.352;14.058;2022-10-17T15:37:39;8.25;;;6.47;;
325;SDS011;150;52.352;14.058;2022-10-17T15:40:08;7.43;;;5.80;;
325;SDS011;150;52.352;14.058;2022-10-17T15:42:38;8.35;;;6.53;;
325;SDS011;150;52.352;14.058;2022-10-17T15:45:07;7.75;;;6.25;;
325;SDS011;150;52.352;14.058;2022-10-17T15:47:35;7.20;;;6.55;;
325;SDS011;150;52.352;14.058;2022-10-17T15:50:03;9.18;;;6.35;;
325;SDS011;150;52.352;14.058;2022-10-17T15:52:32;12.43;;;7.25;;
325;SDS011;150;52.352;14.058;2022-10-17T15:54:59;8.80;;;6.38;;
325;SDS011;150;52.352;14.058;2022-10-17T15:57:26;7.70;;;5.90;;
325;SDS011;150;52.352;14.058;2022-10-17T15:59:54;11.20;;;6.30;;
325;SDS011;150;52.352;14.058;2022-10-17T16:02:23;8.50;;;6.72;;
325;SDS011;150;52.352;14.058;2022-10-17T16:04:50;12.63;;;11.20;;
325;SDS011;150;52.352;14.058;2022-10-17T16:07:18;17.42;;;11.95;;
325;SDS011;150;52.352;14.058;2022-10-17T16:09:45;10.10;;;7.38;;
325;SDS011;150;52.352;14.058;2022-10-17T16:12:13;13.30;;;10.67;;
325;SDS011;150;52.352;14.058;2022-10-17T16:14:42;13.98;;;9.20;;